createdAt,value
2018-12-18T00:00:07.390Z,91.40
2018-12-18T00:02:35.551Z,91.60
2018-12-18T00:05:09.347Z,91.90
2018-12-18T00:07:37.503Z,92.10
2018-12-18T00:10:07.426Z,92.20
2018-12-18T00:12:35.597Z,92.20
2018-12-18T00:15:04.397Z,92.20
2018-12-18T00:17:32.547Z,92.00
2018-12-18T00:20:00.792Z,91.90
2018-12-18T00:22:28.946Z,92.00
2018-12-18T00:24:57.092Z,92.20
2018-12-18T00:27:25.240Z,92.60
2018-12-18T00:29:53.487Z,92.40
2018-12-18T00:32:21.652Z,92.60
2018-12-18T00:34:49.857Z,92.70
2018-12-18T00:37:18.099Z,92.80
2018-12-18T00:39:46.248Z,92.90
2018-12-18T00:42:14.391Z,92.90
2018-12-18T00:44:42.553Z,92.70
2018-12-18T00:49:45.251Z,99.90
2018-12-18T00:52:13.415Z,92.10
2018-12-18T00:54:41.579Z,92.10
2018-12-18T00:59:37.656Z,92.20
2018-12-18T01:04:33.415Z,92.10
2018-12-18T01:07:01.579Z,92.40
2018-12-18T01:09:29.822Z,92.40
2018-12-18T01:11:58.009Z,92.40
2018-12-18T01:14:26.331Z,92.40
2018-12-18T01:16:54.483Z,92.50
2018-12-18T01:19:22.642Z,92.50
2018-12-18T01:21:50.878Z,92.60
2018-12-18T01:24:19.053Z,92.40
2018-12-18T01:26:47.296Z,92.10
2018-12-18T01:29:15.451Z,92.10
2018-12-18T01:31:43.655Z,92.30
2018-12-18T01:34:11.800Z,92.30
2018-12-18T01:36:39.979Z,92.40
2018-12-18T01:39:08.118Z,92.50
2018-12-18T01:41:36.343Z,92.70
2018-12-18T01:44:04.483Z,92.80
2018-12-18T01:46:32.771Z,92.60
2018-12-18T01:49:01.017Z,92.80
2018-12-18T01:51:29.239Z,92.10
2018-12-18T01:53:57.499Z,92.40
2018-12-18T01:56:25.779Z,92.40
2018-12-18T02:01:21.980Z,92.70
2018-12-18T02:06:18.183Z,92.40
2018-12-18T02:08:46.394Z,92.70
2018-12-18T02:11:14.687Z,92.80
2018-12-18T02:13:42.891Z,92.90
2018-12-18T02:16:11.234Z,92.70
2018-12-18T02:18:39.415Z,92.50
2018-12-18T02:21:07.683Z,92.60
2018-12-18T02:23:35.971Z,92.60
2018-12-18T02:26:04.150Z,92.70
2018-12-18T02:28:32.420Z,92.80
2018-12-18T02:31:00.659Z,92.80
2018-12-18T02:33:28.843Z,92.90
2018-12-18T02:35:57.187Z,92.80
2018-12-18T02:38:25.475Z,92.70
2018-12-18T02:40:53.663Z,92.70
2018-12-18T02:43:21.836Z,92.70
2018-12-18T02:45:50.031Z,92.70
2018-12-18T02:48:18.524Z,92.70
2018-12-18T02:50:46.711Z,92.70
2018-12-18T02:53:14.898Z,92.50
2018-12-18T02:55:43.132Z,92.40
2018-12-18T02:58:11.316Z,92.30
2018-12-18T03:00:39.511Z,92.30
2018-12-18T03:03:07.920Z,99.30
2018-12-18T03:08:04.183Z,92.10
2018-12-18T03:10:32.411Z,92.70
2018-12-18T03:13:00.601Z,92.30
2018-12-18T03:15:28.826Z,92.20
2018-12-18T03:17:57.019Z,92.00
2018-12-18T03:20:25.215Z,91.90
2018-12-18T03:22:53.410Z,91.70
2018-12-18T03:25:21.688Z,91.60
2018-12-18T03:27:49.870Z,91.80
2018-12-18T03:30:18.063Z,92.00
2018-12-18T03:32:52.155Z,91.90
2018-12-18T03:35:20.515Z,91.60
2018-12-18T03:37:48.743Z,91.60
2018-12-18T03:40:16.911Z,91.60
2018-12-18T03:42:45.085Z,91.60
2018-12-18T03:45:13.354Z,91.60
2018-12-18T03:47:41.551Z,91.50
2018-12-18T03:50:09.827Z,91.20
2018-12-18T03:52:38.135Z,90.70
2018-12-18T03:55:06.300Z,90.70
2018-12-18T03:57:34.489Z,91.00
2018-12-18T04:00:02.667Z,91.30
2018-12-18T04:09:54.831Z,91.40
2018-12-18T04:12:23.878Z,91.60
2018-12-18T04:14:52.402Z,91.30
2018-12-18T04:17:20.576Z,91.30
2018-12-18T04:19:48.795Z,91.40
2018-12-18T04:25:48.659Z,90.60
2018-12-18T04:28:16.815Z,93.70
2018-12-18T04:38:08.939Z,90.90
2018-12-18T04:40:37.180Z,91.20
2018-12-18T04:43:05.394Z,91.20
2018-12-18T04:45:33.640Z,91.00
2018-12-18T04:48:01.870Z,90.70
2018-12-18T04:50:30.107Z,90.80
2018-12-18T04:52:58.334Z,91.00
2018-12-18T04:55:26.509Z,90.90
2018-12-18T04:57:54.697Z,90.90
2018-12-18T05:00:23.050Z,91.20
2018-12-18T05:02:51.239Z,91.00
2018-12-18T05:05:19.403Z,90.70
2018-12-18T05:07:47.619Z,90.70
2018-12-18T05:10:15.790Z,90.40
2018-12-18T05:12:43.979Z,90.00
2018-12-18T05:15:12.153Z,90.10
2018-12-18T05:17:40.347Z,90.20
2018-12-18T05:20:08.613Z,90.20
2018-12-18T05:22:37.025Z,89.70
2018-12-18T05:25:05.190Z,89.60
2018-12-18T05:27:33.418Z,90.10
2018-12-18T05:37:25.510Z,90.40
2018-12-18T05:39:53.687Z,90.90
2018-12-18T05:42:21.858Z,90.80
2018-12-18T05:44:50.027Z,90.90
2018-12-18T05:47:18.208Z,90.70
2018-12-18T05:49:46.387Z,91.00
2018-12-18T05:52:14.686Z,90.70
2018-12-18T05:54:42.847Z,90.80
2018-12-18T05:57:11.083Z,90.90
2018-12-18T05:59:39.263Z,91.00
2018-12-18T06:02:08.287Z,90.80
2018-12-18T06:04:36.524Z,91.00
2018-12-18T06:07:04.743Z,91.10
2018-12-18T06:09:33.011Z,91.30
2018-12-18T06:12:01.188Z,91.00
2018-12-18T06:14:29.402Z,91.30
2018-12-18T06:17:03.923Z,91.40
2018-12-18T06:19:32.123Z,91.30
2018-12-18T06:22:00.325Z,91.30
2018-12-18T06:24:28.517Z,91.30
2018-12-18T06:26:56.763Z,99.90
2018-12-18T06:29:24.939Z,90.70
2018-12-18T06:31:53.163Z,90.70
2018-12-18T06:36:49.348Z,90.60
2018-12-18T06:41:45.595Z,92.40
2018-12-18T06:44:13.778Z,91.40
2018-12-18T06:46:42.071Z,91.20
2018-12-18T06:49:10.255Z,91.10
2018-12-18T06:51:38.443Z,90.90
2018-12-18T06:54:06.671Z,90.90
2018-12-18T06:56:34.846Z,90.70
2018-12-18T06:59:03.023Z,90.80
2018-12-18T07:01:31.284Z,90.70
2018-12-18T07:03:59.576Z,90.50
2018-12-18T07:06:27.809Z,90.50
2018-12-18T07:08:56.038Z,90.40
2018-12-18T07:11:24.216Z,90.50
2018-12-18T07:13:52.386Z,90.50
2018-12-18T07:16:20.621Z,90.50
2018-12-18T07:18:48.801Z,90.60
2018-12-18T07:21:17.102Z,90.70
2018-12-18T07:23:45.362Z,90.60
2018-12-18T07:26:13.638Z,93.20
2018-12-18T07:28:48.395Z,89.70
2018-12-18T07:31:16.568Z,93.90
2018-12-18T07:33:44.750Z,89.20
2018-12-18T07:43:36.947Z,88.00
2018-12-18T07:46:05.165Z,89.00
2018-12-18T07:48:33.332Z,89.60
2018-12-18T07:51:01.503Z,89.40
2018-12-18T07:53:29.692Z,89.60
2018-12-18T07:56:00.399Z,89.30
2018-12-18T07:58:28.100Z,89.20
2018-12-18T08:00:56.414Z,89.30
2018-12-18T08:03:24.646Z,89.50
2018-12-18T08:05:52.832Z,89.50
2018-12-18T08:08:21.038Z,89.10
2018-12-18T08:10:49.204Z,89.20
2018-12-18T08:13:17.400Z,89.50
2018-12-18T08:15:45.571Z,89.20
2018-12-18T08:18:13.800Z,89.10
2018-12-18T08:20:42.119Z,88.40
2018-12-18T08:23:10.342Z,89.20
2018-12-18T08:25:38.574Z,88.50
2018-12-18T08:28:06.779Z,89.70
2018-12-18T08:30:35.047Z,99.90
2018-12-18T08:33:03.223Z,89.50
2018-12-18T08:35:36.382Z,90.00
2018-12-18T08:38:01.668Z,90.50
2018-12-18T08:45:25.735Z,93.70
2018-12-18T08:47:53.906Z,92.40
2018-12-18T08:50:22.201Z,91.80
2018-12-18T08:52:50.383Z,92.10
2018-12-18T08:55:18.611Z,92.00
2018-12-18T08:57:46.783Z,91.30
2018-12-18T09:00:14.968Z,90.80
2018-12-18T09:02:43.239Z,89.50
2018-12-18T09:05:11.407Z,87.50
2018-12-18T09:07:39.631Z,86.10
2018-12-18T09:10:09.287Z,85.80
2018-12-18T09:12:37.455Z,85.00
2018-12-18T09:15:11.846Z,84.30
2018-12-18T09:17:46.294Z,84.50
2018-12-18T09:20:14.861Z,83.50
2018-12-18T09:22:43.479Z,83.20
2018-12-18T09:25:11.664Z,83.90
2018-12-18T09:27:39.836Z,81.20
2018-12-18T09:30:10.463Z,79.50
2018-12-18T09:32:38.663Z,80.30
2018-12-18T09:35:07.623Z,80.60
2018-12-18T09:37:35.868Z,77.50
2018-12-18T09:40:05.660Z,78.20
2018-12-18T09:42:39.228Z,78.50
2018-12-18T09:50:03.821Z,76.30
2018-12-18T09:54:59.997Z,76.50
2018-12-18T09:57:33.579Z,75.90
2018-12-18T10:00:01.767Z,73.50
2018-12-18T10:02:30.040Z,72.10
2018-12-18T10:04:58.262Z,71.90
2018-12-18T10:07:26.487Z,72.00
2018-12-18T10:09:54.695Z,71.40
2018-12-18T10:12:28.397Z,71.10
2018-12-18T10:14:56.699Z,71.00
2018-12-18T10:17:24.938Z,69.70
2018-12-18T10:19:53.463Z,70.10
2018-12-18T10:22:21.687Z,71.10
2018-12-18T10:24:49.874Z,70.10
2018-12-18T10:27:18.124Z,69.40
2018-12-18T10:29:46.309Z,69.40
2018-12-18T10:32:14.629Z,70.10
2018-12-18T10:34:42.862Z,69.70
2018-12-18T10:37:11.075Z,69.50
2018-12-18T10:39:39.302Z,69.00
2018-12-18T10:42:07.474Z,67.10
2018-12-18T10:44:35.638Z,65.90
2018-12-18T10:47:04.699Z,66.10
2018-12-18T10:49:32.972Z,65.60
2018-12-18T10:52:01.216Z,92.70
2018-12-18T10:54:29.482Z,65.20
2018-12-18T10:56:57.696Z,65.60
2018-12-18T10:59:26.028Z,74.10
2018-12-18T11:06:52.916Z,63.70
2018-12-18T11:09:21.182Z,66.10
2018-12-18T11:11:49.505Z,64.50
2018-12-18T11:14:17.720Z,65.30
2018-12-18T11:16:45.988Z,64.60
2018-12-18T11:19:14.199Z,65.20
2018-12-18T11:21:42.367Z,64.70
2018-12-18T11:24:10.647Z,63.10
2018-12-18T11:26:38.864Z,61.50
2018-12-18T11:29:07.071Z,62.00
2018-12-18T11:31:35.232Z,62.90
2018-12-18T11:34:03.454Z,62.30
2018-12-18T11:36:31.709Z,60.80
2018-12-18T11:38:59.878Z,60.00
2018-12-18T11:41:28.039Z,59.50
2018-12-18T11:43:56.259Z,61.90
2018-12-18T11:46:24.542Z,63.30
2018-12-18T11:48:52.706Z,63.70
2018-12-18T11:51:20.875Z,61.20
2018-12-18T11:53:49.139Z,61.50
2018-12-18T11:56:17.340Z,60.40
2018-12-18T12:01:13.652Z,59.50
2018-12-18T12:06:09.802Z,59.30
2018-12-18T12:08:37.976Z,61.40
2018-12-18T12:11:06.279Z,60.80
2018-12-18T12:13:34.485Z,59.30
2018-12-18T12:16:09.251Z,58.40
2018-12-18T12:18:37.519Z,58.50
2018-12-18T12:21:05.723Z,58.30
2018-12-18T12:23:33.919Z,57.60
2018-12-18T12:26:06.332Z,57.40
2018-12-18T12:28:34.496Z,58.10
2018-12-18T12:31:02.740Z,58.50
2018-12-18T12:33:30.921Z,58.60
2018-12-18T12:35:59.146Z,58.70
2018-12-18T12:38:27.323Z,58.10
2018-12-18T12:40:55.554Z,58.20
2018-12-18T12:43:23.778Z,58.00
2018-12-18T12:45:52.028Z,57.50
2018-12-18T12:48:22.207Z,56.90
2018-12-18T12:50:50.461Z,57.50
2018-12-18T12:53:18.798Z,57.40
2018-12-18T12:55:46.976Z,56.70
2018-12-18T12:58:15.243Z,56.50
2018-12-18T13:00:49.768Z,57.30
2018-12-18T13:03:18.067Z,57.70
2018-12-18T13:10:42.624Z,57.60
2018-12-18T13:13:10.816Z,57.80
2018-12-18T13:15:38.999Z,57.70
2018-12-18T13:18:07.223Z,57.50
2018-12-18T13:20:35.471Z,57.80
2018-12-18T13:23:03.665Z,57.70
2018-12-18T13:25:31.840Z,57.50
2018-12-18T13:28:00.078Z,58.10
2018-12-18T13:30:28.272Z,57.30
2018-12-18T13:32:56.477Z,56.50
2018-12-18T13:35:24.727Z,56.80
2018-12-18T13:37:52.980Z,56.40
2018-12-18T13:40:21.192Z,56.40
2018-12-18T13:42:49.358Z,56.90
2018-12-18T13:45:17.553Z,57.70
2018-12-18T13:47:45.727Z,57.80
2018-12-18T13:50:13.986Z,58.10
2018-12-18T13:52:42.161Z,57.30
2018-12-18T13:55:10.355Z,57.50
2018-12-18T13:57:38.557Z,57.70
2018-12-18T14:00:06.824Z,57.80
2018-12-18T14:02:34.999Z,58.00
2018-12-18T14:05:03.183Z,57.50
2018-12-18T14:09:59.486Z,82.60
2018-12-18T14:12:27.673Z,58.10
2018-12-18T14:14:55.852Z,58.50
2018-12-18T14:17:24.039Z,58.50
2018-12-18T14:19:52.210Z,58.50
2018-12-18T14:22:20.491Z,58.60
2018-12-18T14:24:48.709Z,58.70
2018-12-18T14:27:16.913Z,58.90
2018-12-18T14:29:45.120Z,58.90
2018-12-18T14:32:13.310Z,59.00
2018-12-18T14:34:41.499Z,59.20
2018-12-18T14:37:09.676Z,59.00
2018-12-18T14:39:37.864Z,59.10
2018-12-18T14:42:06.029Z,59.30
2018-12-18T14:44:34.216Z,59.60
2018-12-18T14:47:02.405Z,59.90
2018-12-18T14:49:30.623Z,60.40
2018-12-18T14:51:58.886Z,60.90
2018-12-18T14:54:27.257Z,60.60
2018-12-18T14:56:55.462Z,60.90
2018-12-18T14:59:24.103Z,61.00
2018-12-18T15:01:52.293Z,88.20
2018-12-18T15:06:48.482Z,61.50
2018-12-18T15:09:16.754Z,62.80
2018-12-18T15:11:44.967Z,63.00
2018-12-18T15:14:13.166Z,64.60
2018-12-18T15:16:41.399Z,67.70
2018-12-18T15:19:09.634Z,67.70
2018-12-18T15:21:37.811Z,67.10
2018-12-18T15:24:06.006Z,68.40
2018-12-18T15:26:34.275Z,70.00
2018-12-18T15:29:02.467Z,70.70
2018-12-18T15:31:30.752Z,71.20
2018-12-18T15:33:58.940Z,71.70
2018-12-18T15:36:27.201Z,71.90
2018-12-18T15:38:55.375Z,72.30
2018-12-18T15:41:23.643Z,72.70
2018-12-18T15:43:51.969Z,72.80
2018-12-18T15:46:20.339Z,73.10
2018-12-18T15:48:48.503Z,73.80
2018-12-18T15:51:16.692Z,74.00
2018-12-18T15:53:44.955Z,74.00
2018-12-18T15:56:13.131Z,93.20
2018-12-18T15:58:41.425Z,73.80
2018-12-18T16:01:09.612Z,90.10
2018-12-18T16:03:37.813Z,81.90
2018-12-18T16:06:05.990Z,75.20
2018-12-18T16:08:34.181Z,96.00
2018-12-18T16:11:02.460Z,75.40
2018-12-18T16:13:30.660Z,75.40
2018-12-18T16:15:58.916Z,76.10
2018-12-18T16:18:27.113Z,76.10
2018-12-18T16:20:55.297Z,76.10
2018-12-18T16:23:23.531Z,76.10
2018-12-18T16:25:51.751Z,76.20
2018-12-18T16:28:20.034Z,77.80
2018-12-18T16:30:55.110Z,76.70
2018-12-18T16:33:23.358Z,76.50
2018-12-18T16:35:51.618Z,76.60
2018-12-18T16:38:19.799Z,76.80
2018-12-18T16:40:47.984Z,76.70
2018-12-18T16:43:16.302Z,76.60
2018-12-18T16:45:44.533Z,76.60
2018-12-18T16:48:12.737Z,76.80
2018-12-18T16:50:41.056Z,77.00
2018-12-18T16:53:09.264Z,77.30
2018-12-18T16:55:37.492Z,76.90
2018-12-18T16:58:05.723Z,76.80
2018-12-18T17:00:33.919Z,91.70
2018-12-18T17:03:02.148Z,76.80
2018-12-18T17:05:30.327Z,99.90
2018-12-18T17:07:58.537Z,99.10
2018-12-18T17:10:26.779Z,99.90
2018-12-18T17:15:25.288Z,78.50
2018-12-18T17:17:53.530Z,79.30
2018-12-18T17:20:21.714Z,80.00
2018-12-18T17:22:49.908Z,79.90
2018-12-18T17:25:18.199Z,80.00
2018-12-18T17:27:46.423Z,80.30
2018-12-18T17:30:14.616Z,81.10
2018-12-18T17:32:42.843Z,81.60
2018-12-18T17:35:11.119Z,81.80
2018-12-18T17:37:39.315Z,81.60
2018-12-18T17:40:08.460Z,81.70
2018-12-18T17:42:36.666Z,81.90
2018-12-18T17:45:05.377Z,81.60
2018-12-18T17:47:33.666Z,81.30
2018-12-18T17:50:01.889Z,81.50
2018-12-18T17:52:30.189Z,81.70
2018-12-18T17:54:58.457Z,81.60
2018-12-18T17:57:26.735Z,81.30
2018-12-18T17:59:55.048Z,82.00
2018-12-18T18:02:23.450Z,81.30
2018-12-18T18:04:51.705Z,81.10
2018-12-18T18:07:19.896Z,90.10
2018-12-18T18:09:48.117Z,81.60
2018-12-18T18:19:40.451Z,82.60
2018-12-18T18:22:08.707Z,83.60
2018-12-18T18:24:36.943Z,83.40
2018-12-18T18:27:05.306Z,83.40
2018-12-18T18:29:33.505Z,83.10
2018-12-18T18:32:01.866Z,83.40
2018-12-18T18:34:30.178Z,83.30
2018-12-18T18:36:58.436Z,82.20
2018-12-18T18:39:26.719Z,82.90
2018-12-18T18:41:55.117Z,83.00
2018-12-18T18:44:23.635Z,83.20
2018-12-18T18:46:51.872Z,83.30
2018-12-18T18:49:20.177Z,83.20
2018-12-18T18:51:48.494Z,82.70
2018-12-18T18:54:16.679Z,82.60
2018-12-18T18:56:44.911Z,82.30
2018-12-18T18:59:13.128Z,82.10
2018-12-18T19:01:41.527Z,81.80
2018-12-18T19:04:09.877Z,81.50
2018-12-18T19:06:38.245Z,87.20
2018-12-18T19:09:08.003Z,82.60
2018-12-18T19:11:36.238Z,82.70
2018-12-18T19:14:04.444Z,83.60
2018-12-18T19:16:32.711Z,99.90
2018-12-18T19:21:29.119Z,82.10
2018-12-18T19:23:57.368Z,83.10
2018-12-18T19:26:25.620Z,83.60
2018-12-18T19:28:53.821Z,84.50
2018-12-18T19:31:22.078Z,84.90
2018-12-18T19:33:50.323Z,83.70
2018-12-18T19:36:18.591Z,83.50
2018-12-18T19:38:46.939Z,83.50
2018-12-18T19:42:44.542Z,82.50
2018-12-18T19:45:12.801Z,82.00
2018-12-18T19:47:41.072Z,82.00
2018-12-18T19:50:09.375Z,82.20
2018-12-18T19:57:33.573Z,82.10
2018-12-18T20:00:01.763Z,82.90
2018-12-18T20:02:30.015Z,83.00
2018-12-18T20:04:58.335Z,82.70
2018-12-18T20:07:26.581Z,82.20
2018-12-18T20:09:54.933Z,82.40
2018-12-18T20:12:23.275Z,82.40
2018-12-18T20:14:51.503Z,82.50
2018-12-18T20:17:19.810Z,81.80
2018-12-18T20:19:48.133Z,81.40
2018-12-18T20:22:16.318Z,81.80
2018-12-18T20:24:44.538Z,82.10
2018-12-18T20:27:12.774Z,81.60
2018-12-18T20:29:41.249Z,80.70
2018-12-18T20:32:09.543Z,81.10
2018-12-18T20:34:37.754Z,81.30
2018-12-18T20:37:05.995Z,82.10
2018-12-18T20:39:34.176Z,82.30
2018-12-18T20:42:02.384Z,82.10
2018-12-18T20:44:30.645Z,82.40
2018-12-18T20:46:58.913Z,82.30
2018-12-18T20:51:55.281Z,85.00
2018-12-18T20:59:19.828Z,81.50
2018-12-18T21:01:48.058Z,82.00
2018-12-18T21:04:16.368Z,82.00
2018-12-18T21:06:44.701Z,81.80
2018-12-18T21:09:13.061Z,82.10
2018-12-18T21:11:41.375Z,81.70
2018-12-18T21:14:09.856Z,81.80
2018-12-18T21:16:38.236Z,81.20
2018-12-18T21:19:06.535Z,81.00
2018-12-18T21:21:34.907Z,80.80
2018-12-18T21:24:03.252Z,81.30
2018-12-18T21:26:31.617Z,81.80
2018-12-18T21:29:00.028Z,81.50
2018-12-18T21:31:28.368Z,81.10
2018-12-18T21:33:56.742Z,80.40
2018-12-18T21:36:25.247Z,80.30
2018-12-18T21:38:53.661Z,80.10
2018-12-18T21:41:22.000Z,80.00
2018-12-18T21:43:50.411Z,97.20
2018-12-18T21:46:18.745Z,79.90
2018-12-18T21:48:47.145Z,79.20
2018-12-18T21:51:15.733Z,78.40
2018-12-18T21:56:12.279Z,97.50
2018-12-18T21:58:40.695Z,78.50
2018-12-18T22:01:09.030Z,79.20
2018-12-18T22:03:37.448Z,80.00
2018-12-18T22:06:05.772Z,80.50
2018-12-18T22:08:36.924Z,80.20
2018-12-18T22:11:04.554Z,79.80
2018-12-18T22:13:33.362Z,80.70
2018-12-18T22:16:01.778Z,81.30
2018-12-18T22:18:30.118Z,81.70
2018-12-18T22:20:58.517Z,82.30
2018-12-18T22:23:26.880Z,80.60
2018-12-18T22:25:57.133Z,79.70
2018-12-18T22:28:25.373Z,79.00
2018-12-18T22:30:53.673Z,78.80
2018-12-18T22:33:22.019Z,78.90
2018-12-18T22:35:50.199Z,78.80
2018-12-18T22:38:18.450Z,78.90
2018-12-18T22:40:46.746Z,79.50
2018-12-18T22:43:15.083Z,79.50
2018-12-18T22:45:43.346Z,78.70
2018-12-18T22:48:11.583Z,78.00
2018-12-18T22:50:39.859Z,77.60
2018-12-18T23:00:38.047Z,76.40
2018-12-18T23:03:07.355Z,77.60
2018-12-18T23:05:35.567Z,78.30
2018-12-18T23:08:03.878Z,79.00
2018-12-18T23:10:32.108Z,79.00
2018-12-18T23:13:00.726Z,78.50
2018-12-18T23:15:28.911Z,78.40
2018-12-18T23:17:57.111Z,78.50
2018-12-18T23:20:25.312Z,78.70
2018-12-18T23:22:53.508Z,79.10
2018-12-18T23:25:21.785Z,79.60
2018-12-18T23:27:50.019Z,79.80
2018-12-18T23:30:18.198Z,79.00
2018-12-18T23:32:46.388Z,79.30
2018-12-18T23:35:14.763Z,80.00
2018-12-18T23:37:42.961Z,80.00
2018-12-18T23:40:11.162Z,80.10
2018-12-18T23:42:39.406Z,80.10
2018-12-18T23:45:07.592Z,79.60
2018-12-18T23:47:35.767Z,78.20
2018-12-18T23:50:04.117Z,78.10
2018-12-18T23:52:32.350Z,78.00
2018-12-18T23:59:56.502Z,97.20
